Time;durP1;ratioP1;P1;durP2;ratioP2;P2;SDS_P1;SDS_P2;PMS_P1;PMS_P2;Temp;Humidity;BMP_temperature;BMP_pressure;BME280_temperature;BME280_humidity;BME280_pressure;Samples;Min_cycle;Max_cycle;Signal;HPM_P1;HPM_P2
2023/09/08 00:00:24;;;;;;;5.65;3.78;;;;;;;13.81;100.00;98897.59;3153782;23;20101;-87
2023/09/08 00:02:00;;;;;;;5.97;4.82;;;;;;;13.89;100.00;98899.97;3146649;23;20023;-87
2023/09/08 00:03:15;;;;;;;5.55;4.22;;;;;;;13.90;100.00;98908.72;3157244;23;20013;-87
2023/09/08 00:04:32;;;;;;;7.18;4.15;;;;;;;13.92;100.00;98906.91;3164578;23;20027;-87
2023/09/08 00:05:48;;;;;;;7.20;4.07;;;;;;;13.91;100.00;98910.47;3162851;23;20045;-87
2023/09/08 00:07:04;;;;;;;6.63;4.30;;;;;;;13.76;100.00;98906.56;3162828;23;20014;-87
2023/09/08 00:08:19;;;;;;;7.38;4.40;;;;;;;13.79;100.00;98902.06;3163017;23;20050;-87
2023/09/08 00:09:35;;;;;;;6.30;4.28;;;;;;;13.95;100.00;98909.44;3148002;23;20018;-88
2023/09/08 00:10:50;;;;;;;5.85;4.47;;;;;;;13.89;100.00;98907.88;3153667;23;20108;-87
2023/09/08 00:12:06;;;;;;;4.95;3.97;;;;;;;13.72;100.00;98902.34;3163436;23;20030;-87
2023/09/08 00:13:22;;;;;;;6.85;4.65;;;;;;;13.73;100.00;98904.88;3162966;23;20026;-88
2023/09/08 00:14:37;;;;;;;7.05;4.43;;;;;;;13.72;100.00;98912.84;3163457;23;20026;-87
2023/09/08 00:15:53;;;;;;;10.80;4.40;;;;;;;13.64;100.00;98913.94;3147279;23;20178;-87
2023/09/08 00:17:08;;;;;;;7.78;4.93;;;;;;;13.75;100.00;98905.69;3154179;23;20426;-87
2023/09/08 00:18:24;;;;;;;7.70;4.70;;;;;;;13.67;100.00;98903.31;3165227;23;20410;-87
2023/09/08 00:19:39;;;;;;;7.30;4.40;;;;;;;13.72;100.00;98902.34;3148009;23;20383;-87
2023/09/08 00:20:55;;;;;;;6.88;4.30;;;;;;;13.66;100.00;98906.88;3154719;23;20057;-87
2023/09/08 00:22:10;;;;;;;5.75;4.20;;;;;;;13.63;100.00;98906.13;3165502;23;20022;-87
2023/09/08 00:23:28;;;;;;;7.22;4.22;;;;;;;13.70;100.00;98905.00;3164159;23;20029;-87
2023/09/08 00:24:43;;;;;;;6.45;4.18;;;;;;;13.78;100.00;98910.00;3165472;23;20026;-87
2023/09/08 00:25:59;;;;;;;5.60;4.10;;;;;;;13.81;100.00;98904.63;3163813;23;20092;-87
2023/09/08 00:27:14;;;;;;;5.60;4.03;;;;;;;13.74;100.00;98903.97;3164008;23;20402;-87
2023/09/08 00:28:30;;;;;;;5.22;3.70;;;;;;;13.56;100.00;98905.47;3163927;23;20022;-87
2023/09/08 00:29:45;;;;;;;6.07;3.95;;;;;;;13.45;100.00;98908.44;3163793;23;20022;-88
2023/09/08 00:31:01;;;;;;;5.25;3.72;;;;;;;13.59;100.00;98905.38;3147758;23;20452;-87
2023/09/08 00:32:16;;;;;;;7.45;3.95;;;;;;;13.64;100.00;98905.22;3154646;23;20018;-87
2023/09/08 00:33:32;;;;;;;6.03;4.15;;;;;;;13.60;100.00;98893.94;3149275;23;20022;-87
2023/09/08 00:34:48;;;;;;;6.72;4.30;;;;;;;13.65;100.00;98899.03;3154077;23;20026;-87
2023/09/08 00:36:03;;;;;;;4.95;3.58;;;;;;;13.52;100.00;98901.19;3165232;23;20463;-89
2023/09/08 00:37:19;;;;;;;6.10;4.20;;;;;;;13.50;100.00;98903.91;3164047;23;20044;-88
2023/09/08 00:38:34;;;;;;;4.68;3.63;;;;;;;13.45;100.00;98902.31;3149136;23;20507;-87
2023/09/08 00:39:50;;;;;;;7.22;3.75;;;;;;;13.60;100.00;98901.81;3154121;23;20399;-88
2023/09/08 00:41:06;;;;;;;4.90;3.85;;;;;;;13.57;100.00;98894.03;3164281;23;20022;-87
2023/09/08 00:42:21;;;;;;;5.15;3.72;;;;;;;13.50;100.00;98901.28;3163667;23;20077;-87
2023/09/08 00:43:36;;;;;;;5.38;3.90;;;;;;;13.46;100.00;98898.78;3164026;23;20026;-88
2023/09/08 00:44:52;;;;;;;5.72;3.90;;;;;;;13.47;100.00;98896.09;3147532;23;20042;-87
2023/09/08 00:46:09;;;;;;;5.25;3.95;;;;;;;13.49;100.00;98898.69;3153951;23;20025;-87
2023/09/08 00:47:24;;;;;;;5.85;4.03;;;;;;;13.54;100.00;98902.00;3164006;23;20014;-87
2023/09/08 00:48:41;;;;;;;6.85;4.10;;;;;;;13.52;100.00;98898.56;3163487;23;20819;-88
2023/09/08 00:49:57;;;;;;;5.28;4.03;;;;;;;13.48;100.00;98897.84;3164470;23;20045;-87
2023/09/08 00:51:12;;;;;;;5.57;3.80;;;;;;;13.34;100.00;98900.88;3165522;23;20540;-87
2023/09/08 00:52:32;;;;;;;6.20;4.05;;;;;;;13.23;100.00;98900.34;3163957;23;20501;-87
2023/09/08 00:53:47;;;;;;;6.85;3.63;;;;;;;13.06;100.00;98901.72;3165152;23;20514;-87
2023/09/08 00:55:03;;;;;;;6.30;4.35;;;;;;;13.14;100.00;98893.59;3147728;23;20101;-88
2023/09/08 00:56:20;;;;;;;7.43;4.10;;;;;;;13.09;100.00;98901.63;3155234;23;20026;-87
2023/09/08 00:57:35;;;;;;;7.50;4.40;;;;;;;13.00;100.00;98897.53;3163789;23;20044;-87
2023/09/08 00:58:51;;;;;;;7.72;4.32;;;;;;;13.07;100.00;98897.34;3163770;23;20033;-87
2023/09/08 01:00:07;;;;;;;6.03;4.32;;;;;;;13.09;100.00;98891.13;3164728;23;20021;-87
2023/09/08 01:01:23;;;;;;;6.82;4.07;;;;;;;12.89;100.00;98899.59;3163312;23;20010;-87
2023/09/08 01:02:38;;;;;;;6.20;4.68;;;;;;;13.04;100.00;98895.66;3149029;23;20037;-88
2023/09/08 01:03:54;;;;;;;7.47;4.00;;;;;;;13.10;100.00;98895.47;3153914;23;20022;-87
2023/09/08 01:05:10;;;;;;;6.10;4.15;;;;;;;13.02;100.00;98894.84;3164656;23;20022;-87
2023/09/08 01:06:26;;;;;;;5.55;4.07;;;;;;;13.07;100.00;98900.81;3163756;23;20021;-87
2023/09/08 01:07:42;;;;;;;7.20;4.28;;;;;;;13.10;100.00;98902.50;3164163;23;20025;-89
2023/09/08 01:08:57;;;;;;;6.18;4.20;;;;;;;13.06;100.00;98896.47;3148991;23;20022;-87
2023/09/08 01:10:14;;;;;;;5.80;3.85;;;;;;;13.05;100.00;98901.75;3153603;23;20530;-87
2023/09/08 01:11:30;;;;;;;5.38;4.28;;;;;;;13.09;100.00;98896.38;3147546;23;20038;-87
2023/09/08 01:12:46;;;;;;;7.50;4.75;;;;;;;13.08;100.00;98905.16;3138922;23;20019;-88
2023/09/08 01:14:01;;;;;;;7.13;4.18;;;;;;;13.18;100.00;98902.25;3154866;23;20022;-88
2023/09/08 01:15:17;;;;;;;5.70;3.70;;;;;;;13.16;100.00;98901.44;3147549;23;20031;-87
2023/09/08 01:16:33;;;;;;;6.90;3.90;;;;;;;13.10;100.00;98897.25;3154396;23;20088;-88
2023/09/08 01:17:49;;;;;;;7.97;4.28;;;;;;;12.99;100.00;98895.81;3149016;23;20029;-87
2023/09/08 01:19:10;;;;;;;4.97;3.63;;;;;;;13.01;100.00;98901.03;3138827;23;20029;-87
2023/09/08 01:20:35;;;;;;;6.63;4.05;;;;;;;12.95;100.00;98899.44;3155339;23;20046;-88
2023/09/08 01:21:50;;;;;;;5.57;3.70;;;;;;;12.90;100.00;98905.75;3164477;23;20026;-88
2023/09/08 01:23:18;;;;;;;5.78;4.15;;;;;;;12.93;100.00;98901.25;3163765;23;20352;-88
2023/09/08 01:25:11;;;;;;;7.32;4.43;;;;;;;12.98;100.00;98903.72;3163435;23;20033;-87
2023/09/08 01:26:35;;;;;;;6.00;4.05;;;;;;;12.89;100.00;98901.38;3163579;23;20152;-88
2023/09/08 01:27:54;;;;;;;6.65;4.30;;;;;;;12.82;100.00;98905.97;3163956;23;20018;-88
2023/09/08 01:29:11;;;;;;;6.20;4.00;;;;;;;12.81;100.00;98907.72;3163547;23;20026;-88
2023/09/08 01:30:32;;;;;;;6.45;4.80;;;;;;;12.83;100.00;98895.38;3162771;23;20616;-88
2023/09/08 01:31:48;;;;;;;5.43;4.00;;;;;;;12.74;100.00;98895.69;3148175;23;20070;-87
2023/09/08 01:33:04;;;;;;;7.32;4.75;;;;;;;12.64;100.00;98899.47;3155758;23;20412;-87
2023/09/08 01:34:20;;;;;;;4.43;3.72;;;;;;;12.71;100.00;98901.00;3147730;23;20046;-87
2023/09/08 01:35:36;;;;;;;7.43;4.70;;;;;;;12.63;100.00;98901.22;3139702;23;20034;-87
2023/09/08 01:36:51;;;;;;;5.93;4.03;;;;;;;12.53;100.00;98903.28;3153488;23;20363;-87
2023/09/08 01:38:07;;;;;;;5.05;3.83;;;;;;;12.46;100.00;98896.47;3165360;23;20041;-88
2023/09/08 01:39:23;;;;;;;6.93;4.25;;;;;;;12.53;100.00;98898.03;3164544;23;20100;-87
2023/09/08 01:40:38;;;;;;;6.55;4.45;;;;;;;12.50;100.00;98897.22;3164411;23;20022;-87
2023/09/08 01:41:53;;;;;;;6.97;4.78;;;;;;;12.62;100.00;98896.03;3163673;23;20021;-88
2023/09/08 01:43:09;;;;;;;7.47;4.13;;;;;;;12.55;100.00;98896.19;3163822;23;20033;-88
2023/09/08 01:44:25;;;;;;;7.20;4.93;;;;;;;12.61;100.00;98899.56;3164973;23;20029;-88
2023/09/08 01:45:40;;;;;;;6.80;4.80;;;;;;;12.66;100.00;98893.28;3162973;23;20022;-88
2023/09/08 01:46:56;;;;;;;7.43;4.35;;;;;;;12.76;100.00;98896.50;3163287;23;20025;-87
2023/09/08 01:48:12;;;;;;;8.80;4.57;;;;;;;12.69;100.00;98898.44;3163234;23;20025;-87
2023/09/08 01:49:28;;;;;;;6.18;4.40;;;;;;;12.61;100.00;98899.56;3148175;23;20355;-87
2023/09/08 01:50:43;;;;;;;7.13;4.55;;;;;;;12.74;100.00;98892.19;3153883;23;20076;-88
2023/09/08 01:51:59;;;;;;;7.70;4.05;;;;;;;12.68;100.00;98893.22;3147940;23;20029;-87
2023/09/08 01:53:14;;;;;;;8.00;5.00;;;;;;;12.67;100.00;98895.00;3153724;23;20018;-89
2023/09/08 01:54:30;;;;;;;5.93;4.03;;;;;;;12.69;100.00;98900.19;3163397;23;20541;-87
2023/09/08 01:55:45;;;;;;;5.32;3.97;;;;;;;12.57;100.00;98893.53;3164534;23;20037;-87
2023/09/08 01:57:01;;;;;;;6.47;4.43;;;;;;;12.62;100.00;98891.63;3163416;23;20022;-88
2023/09/08 01:58:16;;;;;;;4.95;3.70;;;;;;;12.68;100.00;98898.47;3164388;23;20046;-87
2023/09/08 01:59:32;;;;;;;6.43;4.30;;;;;;;12.54;100.00;98899.72;3165511;23;20069;-87
2023/09/08 02:00:52;;;;;;;5.68;4.10;;;;;;;12.47;100.00;98894.69;3164170;23;20081;-88
2023/09/08 02:02:07;;;;;;;6.88;4.10;;;;;;;12.43;100.00;98894.78;3165007;23;20022;-87
2023/09/08 02:03:23;;;;;;;6.07;4.00;;;;;;;12.50;100.00;98889.34;3163534;23;20018;-87
2023/09/08 02:04:38;;;;;;;6.72;4.07;;;;;;;12.56;100.00;98889.19;3148323;23;20467;-87
2023/09/08 02:05:54;;;;;;;5.53;3.83;;;;;;;12.54;100.00;98891.00;3153355;23;20038;-88
2023/09/08 02:07:09;;;;;;;6.38;4.10;;;;;;;12.50;100.00;98889.34;3163819;23;20054;-87
2023/09/08 02:08:25;;;;;;;5.45;4.22;;;;;;;12.51;100.00;98885.84;3163434;23;20038;-88
2023/09/08 02:09:42;;;;;;;7.00;4.32;;;;;;;12.38;100.00;98885.31;3163949;23;20026;-88
2023/09/08 02:10:57;;;;;;;6.75;4.35;;;;;;;12.33;100.00;98885.44;3165012;23;20458;-87
2023/09/08 02:12:13;;;;;;;6.68;4.10;;;;;;;12.40;100.00;98891.38;3163603;23;20021;-88
2023/09/08 02:13:28;;;;;;;8.73;4.40;;;;;;;12.20;100.00;98889.31;3164616;23;20446;-87
2023/09/08 02:14:44;;;;;;;5.22;3.92;;;;;;;12.27;100.00;98883.84;3147177;23;20026;-87
2023/09/08 02:16:00;;;;;;;6.75;4.10;;;;;;;12.28;100.00;98893.44;3154286;23;20029;-88
2023/09/08 02:17:15;;;;;;;6.60;3.90;;;;;;;12.25;100.00;98887.44;3165266;23;20018;-88
2023/09/08 02:18:31;;;;;;;8.93;4.60;;;;;;;12.21;100.00;98886.66;3164051;23;20026;-87
2023/09/08 02:19:47;;;;;;;8.20;5.05;;;;;;;12.25;100.00;98887.44;3165066;23;20021;-88
2023/09/08 02:21:02;;;;;;;7.15;4.60;;;;;;;12.27;100.00;98888.25;3163571;23;20395;-87
2023/09/08 02:22:18;;;;;;;7.97;4.78;;;;;;;12.21;100.00;98891.03;3164716;23;20025;-87
2023/09/08 02:23:33;;;;;;;8.05;4.53;;;;;;;12.19;100.00;98883.22;3146699;23;20540;-87
2023/09/08 02:24:51;;;;;;;5.80;4.30;;;;;;;12.07;100.00;98888.81;3153625;23;20448;-88
2023/09/08 02:26:07;;;;;;;6.15;4.25;;;;;;;12.10;100.00;98883.47;3162790;23;20018;-88
2023/09/08 02:27:22;;;;;;;5.05;4.30;;;;;;;12.09;100.00;98887.00;3164005;23;20021;-87
2023/09/08 02:28:38;;;;;;;6.55;4.45;;;;;;;12.05;100.00;98888.84;3164912;23;20025;-87
2023/09/08 02:29:53;;;;;;;7.07;4.22;;;;;;;12.04;100.00;98884.50;3146935;23;20090;-87
2023/09/08 02:31:09;;;;;;;6.28;4.47;;;;;;;12.17;100.00;98884.16;3139581;23;20185;-87
2023/09/08 02:32:24;;;;;;;6.35;4.32;;;;;;;12.12;100.00;98884.28;3153580;23;20018;-89
2023/09/08 02:33:40;;;;;;;7.40;4.53;;;;;;;11.99;100.00;98883.72;3164303;23;20053;-87
2023/09/08 02:34:56;;;;;;;7.32;4.40;;;;;;;12.01;100.00;98881.91;3131650;23;20088;-87
2023/09/08 02:36:11;;;;;;;7.70;4.55;;;;;;;12.06;100.00;98885.31;3144778;23;20088;-88
2023/09/08 02:37:27;;;;;;;6.47;4.38;;;;;;;12.00;100.00;98881.03;3147038;23;20022;-87
2023/09/08 02:38:42;;;;;;;5.95;4.60;;;;;;;11.91;100.00;98889.19;3153787;23;20026;-88
2023/09/08 02:39:58;;;;;;;6.53;4.60;;;;;;;12.02;100.00;98885.47;3163073;23;20064;-88
2023/09/08 02:41:13;;;;;;;5.78;4.18;;;;;;;12.00;100.00;98886.28;3163151;23;20026;-88
2023/09/08 02:42:29;;;;;;;6.20;4.07;;;;;;;12.04;100.00;98891.53;3148423;23;20022;-87
2023/09/08 02:43:44;;;;;;;6.85;4.05;;;;;;;12.08;100.00;98886.16;3153600;23;20018;-87
2023/09/08 02:45:00;;;;;;;7.55;4.60;;;;;;;12.05;100.00;98888.00;3163197;23;20097;-87
2023/09/08 02:46:16;;;;;;;6.55;4.57;;;;;;;11.92;100.00;98890.03;3165265;23;20026;-87
2023/09/08 02:47:31;;;;;;;6.32;4.30;;;;;;;11.93;100.00;98882.13;3163225;23;20024;-87
2023/09/08 02:48:47;;;;;;;6.13;4.15;;;;;;;11.79;100.00;98890.34;3147124;23;20022;-88
2023/09/08 02:50:04;;;;;;;8.43;4.82;;;;;;;11.62;100.00;98885.53;3138584;23;20026;-88
2023/09/08 02:51:20;;;;;;;6.93;4.57;;;;;;;11.61;100.00;98881.22;3138465;23;20082;-87
2023/09/08 02:52:35;;;;;;;5.10;3.92;;;;;;;11.65;100.00;98884.59;3137786;23;20018;-87
2023/09/08 02:53:51;;;;;;;6.18;4.28;;;;;;;11.52;100.00;98881.44;3154178;23;20045;-87
2023/09/08 02:55:08;;;;;;;7.63;4.70;;;;;;;11.61;100.00;98886.44;3146826;23;20105;-87
2023/09/08 02:56:23;;;;;;;6.45;4.55;;;;;;;11.78;100.00;98885.16;3153820;23;20014;-86
2023/09/08 02:57:39;;;;;;;5.88;4.05;;;;;;;11.76;100.00;98886.97;3148836;23;20023;-88
2023/09/08 02:58:55;;;;;;;8.48;4.40;;;;;;;11.76;100.00;98886.97;3153979;23;20022;-87
2023/09/08 03:00:11;;;;;;;7.05;5.13;;;;;;;11.78;100.00;98888.63;3164531;23;20022;-87
2023/09/08 03:01:26;;;;;;;8.52;4.75;;;;;;;11.63;100.00;98884.66;3163011;23;20072;-87
2023/09/08 03:02:42;;;;;;;9.68;4.90;;;;;;;11.58;100.00;98891.75;3164315;23;20022;-88
2023/09/08 03:03:57;;;;;;;7.28;4.68;;;;;;;11.57;100.00;98884.78;3162966;23;20028;-88
2023/09/08 03:05:13;;;;;;;6.88;4.47;;;;;;;11.67;100.00;98894.16;3163037;23;20510;-87
2023/09/08 03:06:29;;;;;;;5.47;4.30;;;;;;;11.70;100.00;98887.97;3164948;23;20022;-87
2023/09/08 03:07:48;;;;;;;6.55;4.45;;;;;;;11.70;100.00;98894.06;3163859;23;20362;-87
2023/09/08 03:09:03;;;;;;;9.05;4.75;;;;;;;11.74;100.00;98889.63;3164319;23;20113;-88
2023/09/08 03:10:19;;;;;;;6.57;4.47;;;;;;;11.70;100.00;98886.19;3163063;23;20513;-86
2023/09/08 03:11:37;;;;;;;7.07;4.22;;;;;;;11.78;100.00;98887.78;3131815;23;20023;-88
2023/09/08 03:12:52;;;;;;;6.07;4.20;;;;;;;11.74;100.00;98881.75;3145152;23;20072;-87
2023/09/08 03:14:08;;;;;;;6.53;4.30;;;;;;;11.71;100.00;98892.31;3163605;23;20021;-87
2023/09/08 03:15:25;;;;;;;7.22;4.28;;;;;;;11.81;100.00;98885.06;3164563;23;20014;-87
2023/09/08 03:16:41;;;;;;;7.50;4.45;;;;;;;11.80;100.00;98884.19;3163298;23;20484;-87
2023/09/08 03:18:00;;;;;;;6.63;4.10;;;;;;;11.80;100.00;98878.09;3164280;23;20045;-88
2023/09/08 03:19:16;;;;;;;7.95;4.75;;;;;;;11.84;100.00;98879.72;3163932;23;20490;-87
2023/09/08 03:20:31;;;;;;;7.78;4.28;;;;;;;11.84;100.00;98879.72;3162825;23;20029;-89
2023/09/08 03:21:47;;;;;;;7.13;4.38;;;;;;;11.82;100.00;98885.03;3164667;23;20029;-87
2023/09/08 03:23:03;;;;;;;5.38;4.28;;;;;;;11.79;100.00;98884.25;3163507;23;20083;-87
2023/09/08 03:24:18;;;;;;;6.15;4.45;;;;;;;11.78;100.00;98885.16;3163121;23;20029;-88
2023/09/08 03:25:34;;;;;;;5.97;4.13;;;;;;;11.76;100.00;98879.94;3163439;23;20032;-87
2023/09/08 03:26:49;;;;;;;7.07;4.22;;;;;;;11.66;100.00;98881.06;3153609;23;20029;-87
2023/09/08 03:28:05;;;;;;;8.35;4.72;;;;;;;11.61;100.00;98885.56;3156667;23;20018;-87
2023/09/08 03:29:21;;;;;;;7.88;4.40;;;;;;;11.45;100.00;98880.72;3163535;23;20081;-89
2023/09/08 03:30:37;;;;;;;7.00;4.63;;;;;;;11.40;100.00;98882.59;3164599;23;20041;-88
2023/09/08 03:31:52;;;;;;;6.95;4.57;;;;;;;11.37;100.00;98883.53;3163301;23;20359;-89
2023/09/08 03:33:08;;;;;;;6.45;4.38;;;;;;;11.29;100.00;98885.44;3164818;23;20640;-89
2023/09/08 03:34:23;;;;;;;9.32;4.68;;;;;;;11.25;100.00;98887.31;3146273;23;20022;-87
2023/09/08 03:35:39;;;;;;;6.97;4.50;;;;;;;11.26;100.00;98891.66;3153860;23;20384;-87
2023/09/08 03:36:55;;;;;;;7.50;4.60;;;;;;;11.24;100.00;98884.72;3146127;23;20381;-87
2023/09/08 03:38:10;;;;;;;8.50;4.78;;;;;;;11.28;100.00;98883.72;3153292;23;20029;-87
2023/09/08 03:39:26;;;;;;;7.07;4.60;;;;;;;11.31;100.00;98881.03;3162429;23;20078;-88
2023/09/08 03:40:42;;;;;;;6.40;4.57;;;;;;;11.36;100.00;98887.03;3163252;23;20021;-88
2023/09/08 03:41:58;;;;;;;5.63;4.10;;;;;;;11.37;100.00;98883.53;3164476;23;20029;-88
2023/09/08 03:43:13;;;;;;;6.97;4.50;;;;;;;11.40;100.00;98883.44;3163172;23;20028;-90
2023/09/08 03:44:29;;;;;;;5.95;4.18;;;;;;;11.25;100.00;98882.06;3164333;23;20122;-88
2023/09/08 03:45:45;;;;;;;8.82;4.70;;;;;;;11.31;100.00;98888.91;3163349;23;20480;-89
2023/09/08 03:47:00;;;;;;;5.80;4.47;;;;;;;11.31;100.00;98888.91;3163724;23;20022;-89
2023/09/08 03:48:16;;;;;;;6.50;4.28;;;;;;;11.30;100.00;98884.56;3163155;23;20415;-89
2023/09/08 03:49:32;;;;;;;6.80;4.68;;;;;;;11.27;100.00;98882.88;3163483;23;20416;-86
2023/09/08 03:50:48;;;;;;;5.88;4.53;;;;;;;11.26;100.00;98890.78;3165484;23;20948;-86
2023/09/08 03:52:04;;;;;;;6.80;4.72;;;;;;;11.19;100.00;98887.44;3164175;23;20051;-87
2023/09/08 03:53:19;;;;;;;6.70;4.35;;;;;;;11.12;100.00;98888.50;3165312;23;20026;-87
2023/09/08 03:54:37;;;;;;;6.43;4.57;;;;;;;11.15;100.00;98888.41;3163929;23;20033;-86
2023/09/08 03:55:52;;;;;;;8.32;4.65;;;;;;;11.10;100.00;98887.63;3164740;23;20029;-88
2023/09/08 03:57:08;;;;;;;6.40;4.80;;;;;;;11.08;100.00;98886.81;3163861;23;20026;-87
2023/09/08 03:58:23;;;;;;;6.78;5.13;;;;;;;11.09;100.00;98893.78;3164460;23;20018;-86
2023/09/08 03:59:39;;;;;;;10.05;4.85;;;;;;;11.07;100.00;98880.72;3165470;23;20022;-87
2023/09/08 04:00:55;;;;;;;7.45;4.82;;;;;;;11.10;100.00;98887.63;3163721;23;20026;-87
2023/09/08 04:02:10;;;;;;;7.25;5.15;;;;;;;11.16;100.00;98885.75;3165248;23;20056;-86
2023/09/08 04:03:26;;;;;;;8.77;4.60;;;;;;;11.14;100.00;98882.28;3147931;23;20041;-87
2023/09/08 04:04:41;;;;;;;10.60;4.57;;;;;;;11.14;100.00;98889.31;3155482;23;20021;-87
2023/09/08 04:05:57;;;;;;;7.63;5.15;;;;;;;11.12;100.00;98889.34;3163930;23;20025;-87
2023/09/08 04:07:12;;;;;;;7.05;4.80;;;;;;;11.13;100.00;98885.81;3148004;23;20022;-87
2023/09/08 04:08:28;;;;;;;8.43;5.20;;;;;;;11.19;100.00;98887.44;3155782;23;20021;-87
2023/09/08 04:09:44;;;;;;;5.65;4.50;;;;;;;11.18;100.00;98888.34;3164315;23;20403;-87
2023/09/08 04:10:59;;;;;;;7.22;4.45;;;;;;;11.08;100.00;98890.31;3149449;23;20349;-89
2023/09/08 04:12:15;;;;;;;7.93;5.03;;;;;;;11.06;100.00;98892.13;3148165;23;20340;-86
2023/09/08 04:13:31;;;;;;;7.35;4.95;;;;;;;11.15;100.00;98893.66;3140167;23;20491;-90
2023/09/08 04:14:46;;;;;;;6.43;4.65;;;;;;;11.08;100.00;98887.69;3154266;23;20026;-88
2023/09/08 04:16:02;;;;;;;7.65;4.90;;;;;;;11.24;100.00;98889.94;3164393;23;20025;-88
2023/09/08 04:17:18;;;;;;;7.50;4.95;;;;;;;11.28;100.00;98888.97;3149519;23;20030;-88
2023/09/08 04:18:33;;;;;;;6.72;4.57;;;;;;;11.19;100.00;98891.84;3154671;23;20354;-88
2023/09/08 04:19:49;;;;;;;7.18;4.60;;;;;;;11.12;100.00;98888.50;3165351;23;20624;-89
2023/09/08 04:21:07;;;;;;;7.63;5.05;;;;;;;11.01;100.00;98897.44;3147448;23;20094;-89
2023/09/08 04:22:22;;;;;;;7.03;4.65;;;;;;;10.94;100.00;98900.25;3147858;23;20017;-89
2023/09/08 04:23:39;;;;;;;8.05;5.00;;;;;;;10.97;100.00;98894.94;3154024;23;20553;-90
2023/09/08 04:24:55;;;;;;;7.07;5.07;;;;;;;10.90;100.00;98904.69;3164487;23;20022;-90
2023/09/08 04:26:10;;;;;;;9.15;4.85;;;;;;;10.83;100.00;98903.94;3163552;23;20022;-90
2023/09/08 04:27:26;;;;;;;8.65;5.18;;;;;;;10.83;100.00;98901.34;3148237;23;20577;-90
2023/09/08 04:28:42;;;;;;;7.75;4.43;;;;;;;10.68;100.00;98907.75;3140164;23;20022;-90
2023/09/08 04:29:57;;;;;;;7.88;5.20;;;;;;;10.72;100.00;98898.06;3154377;23;20078;-90
2023/09/08 04:31:13;;;;;;;7.85;5.28;;;;;;;10.81;100.00;98899.63;3149059;23;20026;-90
2023/09/08 04:32:28;;;;;;;7.70;4.80;;;;;;;10.82;100.00;98906.59;3154028;23;20025;-89
2023/09/08 04:33:44;;;;;;;7.07;4.78;;;;;;;10.76;100.00;98904.13;3147269;23;20757;-88
2023/09/08 04:34:59;;;;;;;8.43;4.90;;;;;;;10.78;100.00;98902.31;3155682;23;20073;-90
2023/09/08 04:36:15;;;;;;;9.38;5.32;;;;;;;10.69;100.00;98896.41;3148198;23;20026;-91
2023/09/08 04:37:30;;;;;;;7.85;5.03;;;;;;;10.87;100.00;98907.38;3147495;23;20818;-90
2023/09/08 04:38:46;;;;;;;8.00;5.50;;;;;;;10.84;100.00;98905.69;3153860;23;20051;-90
2023/09/08 04:40:03;;;;;;;7.00;4.75;;;;;;;10.78;100.00;98904.94;3165263;23;20418;-89
2023/09/08 04:41:18;;;;;;;9.48;5.45;;;;;;;10.91;100.00;98901.16;3163673;23;20058;-89
2023/09/08 04:42:34;;;;;;;7.47;4.97;;;;;;;10.86;100.00;98909.13;3148495;23;20030;-90
2023/09/08 04:43:49;;;;;;;8.77;4.90;;;;;;;10.84;100.00;98903.06;3138577;23;20687;-90
2023/09/08 04:45:05;;;;;;;7.63;4.70;;;;;;;11.01;100.00;98909.66;3154041;23;20033;-89
2023/09/08 04:46:21;;;;;;;7.55;4.80;;;;;;;10.97;100.00;98908.91;3163248;23;20029;-90
2023/09/08 04:47:37;;;;;;;8.07;4.75;;;;;;;10.99;100.00;98906.22;3164178;23;20104;-89
2023/09/08 04:48:52;;;;;;;8.35;4.88;;;;;;;11.01;100.00;98905.31;3165277;23;20026;-89
2023/09/08 04:50:08;;;;;;;5.93;4.28;;;;;;;10.95;100.00;98904.59;3163949;23;20030;-90
2023/09/08 04:51:24;;;;;;;8.13;4.97;;;;;;;10.84;100.00;98905.69;3164763;23;20022;-89
2023/09/08 04:52:40;;;;;;;7.25;5.13;;;;;;;10.92;100.00;98896.81;3163259;23;20032;-90
2023/09/08 04:53:55;;;;;;;8.10;5.03;;;;;;;10.99;100.00;98894.00;3164212;23;20545;-89
2023/09/08 04:55:11;;;;;;;7.05;5.20;;;;;;;10.93;100.00;98894.13;3163426;23;20083;-89
2023/09/08 04:56:26;;;;;;;9.00;5.10;;;;;;;10.86;100.00;98897.78;3164051;23;20237;-90
2023/09/08 04:57:42;;;;;;;7.10;4.82;;;;;;;10.91;100.00;98895.06;3163594;23;20025;-92
2023/09/08 04:59:00;;;;;;;10.02;4.97;;;;;;;10.86;100.00;98898.63;3164038;23;20030;-92
2023/09/08 05:00:16;;;;;;;8.32;4.72;;;;;;;10.78;100.00;98900.59;3148451;23;20380;-89
2023/09/08 05:01:32;;;;;;;6.60;4.82;;;;;;;10.83;100.00;98896.09;3137365;23;20026;-90
2023/09/08 05:02:48;;;;;;;5.82;4.65;;;;;;;10.73;100.00;98899.78;3148011;23;20458;-90
2023/09/08 05:04:04;;;;;;;7.10;5.10;;;;;;;10.80;100.00;98897.91;3138580;23;20035;-90
2023/09/08 05:05:19;;;;;;;8.38;5.15;;;;;;;10.82;100.00;98901.34;3154528;23;20026;-90
2023/09/08 05:06:35;;;;;;;7.55;5.07;;;;;;;10.82;100.00;98899.59;3149030;23;20429;-90
2023/09/08 05:07:55;;;;;;;7.85;5.65;;;;;;;10.94;100.00;98900.25;3147978;23;20026;-91
2023/09/08 05:09:12;;;;;;;11.25;5.35;;;;;;;10.96;100.00;98903.69;3155833;23;20061;-89
2023/09/08 05:10:27;;;;;;;6.57;4.90;;;;;;;11.01;100.00;98901.81;3163962;23;20022;-90
2023/09/08 05:11:43;;;;;;;8.77;5.40;;;;;;;11.07;100.00;98898.19;3147728;23;20027;-90
2023/09/08 05:12:59;;;;;;;9.30;5.40;;;;;;;11.00;100.00;98897.47;3155834;23;20021;-91
2023/09/08 05:14:14;;;;;;;10.18;5.65;;;;;;;11.15;100.00;98902.38;3172121;23;20053;-91
2023/09/08 05:15:31;;;;;;;9.38;5.93;;;;;;;11.22;100.00;98897.84;3159136;23;20070;-91
2023/09/08 05:16:49;;;;;;;9.70;6.30;;;;;;;11.28;100.00;98905.56;3149294;23;20022;-91
2023/09/08 05:18:04;;;;;;;8.55;5.85;;;;;;;11.32;100.00;98901.13;3139902;23;20025;-92
2023/09/08 05:19:20;;;;;;;8.63;5.88;;;;;;;11.24;100.00;98903.91;3155820;23;20725;-91
2023/09/08 05:20:35;;;;;;;10.85;6.10;;;;;;;11.40;100.00;98906.19;3163149;23;20347;-91
2023/09/08 05:21:53;;;;;;;9.73;6.38;;;;;;;11.46;100.00;98903.41;3165239;23;20080;-91
2023/09/08 05:23:08;;;;;;;10.32;5.80;;;;;;;11.57;100.00;98908.38;3164044;23;20022;-91
2023/09/08 05:24:25;;;;;;;9.55;6.20;;;;;;;11.63;100.00;98897.75;3164677;23;20018;-90
2023/09/08 05:25:42;;;;;;;8.43;5.60;;;;;;;11.67;100.00;98899.41;3165605;23;20049;-91
2023/09/08 05:26:58;;;;;;;7.57;4.97;;;;;;;11.68;100.00;98903.75;3163878;23;20053;-90
2023/09/08 05:28:13;;;;;;;9.80;5.10;;;;;;;11.69;100.00;98905.47;3163815;23;20343;-90
2023/09/08 05:29:29;;;;;;;8.02;5.43;;;;;;;11.71;100.00;98908.91;3162769;23;20510;-89
2023/09/08 05:30:44;;;;;;;9.00;5.78;;;;;;;11.83;100.00;98907.75;3164459;23;20032;-89
2023/09/08 05:32:00;;;;;;;8.45;5.40;;;;;;;11.88;100.00;98910.25;3163368;23;20029;-90
2023/09/08 05:33:15;;;;;;;8.80;5.80;;;;;;;11.91;100.00;98910.16;3163899;23;20081;-89
2023/09/08 05:34:31;;;;;;;9.65;5.65;;;;;;;11.95;100.00;98911.81;3163873;23;20024;-91
2023/09/08 05:35:47;;;;;;;8.13;5.45;;;;;;;11.94;100.00;98911.84;3163243;23;20021;-91
2023/09/08 05:37:02;;;;;;;8.75;5.80;;;;;;;11.90;100.00;98907.56;3163148;23;20033;-92
2023/09/08 05:38:18;;;;;;;9.30;5.20;;;;;;;11.95;100.00;98906.56;3147501;23;20030;-90
2023/09/08 05:39:34;;;;;;;10.60;6.50;;;;;;;12.02;100.00;98911.69;3139686;23;20049;-90
2023/09/08 05:40:49;;;;;;;11.05;6.07;;;;;;;11.99;100.00;98905.56;3153553;23;20028;-90
2023/09/08 05:42:05;;;;;;;9.00;6.28;;;;;;;12.00;100.00;98909.06;3164300;23;20025;-89
2023/09/08 05:43:21;;;;;;;10.75;6.07;;;;;;;12.03;100.00;98903.75;3163343;23;20029;-89
2023/09/08 05:44:37;;;;;;;7.60;6.18;;;;;;;12.04;100.00;98913.34;3148198;23;20535;-90
2023/09/08 05:45:52;;;;;;;9.15;5.82;;;;;;;12.07;100.00;98905.41;3155157;23;20021;-90
2023/09/08 05:47:08;;;;;;;8.45;5.88;;;;;;;12.11;100.00;98912.31;3163430;23;20030;-91
2023/09/08 05:48:23;;;;;;;10.57;6.18;;;;;;;12.11;100.00;98914.06;3165014;23;20021;-89
2023/09/08 05:49:39;;;;;;;8.90;5.90;;;;;;;12.06;100.00;98910.72;3163687;23;20073;-88
2023/09/08 05:50:54;;;;;;;9.75;5.47;;;;;;;12.10;100.00;98904.47;3164844;23;20041;-90
2023/09/08 05:52:10;;;;;;;11.70;6.13;;;;;;;12.20;100.00;98915.56;3146971;23;20428;-89
2023/09/08 05:53:26;;;;;;;9.50;6.05;;;;;;;12.36;100.00;98908.16;3154666;23;20406;-89